sensor_id;sensor_type;location;lat;lon;timestamp;P1;durP1;ratioP1;P2;durP2;ratioP2
2173;SDS011;1093;51.424;11.764;2023-05-10T00:01:29;11.00;;;8.33;;
2173;SDS011;1093;51.424;11.764;2023-05-10T00:03:56;7.83;;;6.90;;
2173;SDS011;1093;51.424;11.764;2023-05-10T00:06:23;10.70;;;8.47;;
2173;SDS011;1093;51.424;11.764;2023-05-10T00:08:49;10.30;;;7.90;;
2173;SDS011;1093;51.424;11.764;2023-05-10T00:11:16;10.43;;;8.40;;
2173;SDS011;1093;51.424;11.764;2023-05-10T00:13:43;8.80;;;7.90;;
2173;SDS011;1093;51.424;11.764;2023-05-10T00:16:11;9.77;;;7.93;;
2173;SDS011;1093;51.424;11.764;2023-05-10T00:18:38;9.20;;;7.43;;
2173;SDS011;1093;51.424;11.764;2023-05-10T00:21:05;9.10;;;7.70;;
2173;SDS011;1093;51.424;11.764;2023-05-10T00:23:32;9.37;;;7.33;;
2173;SDS011;1093;51.424;11.764;2023-05-10T00:25:58;10.97;;;8.43;;
2173;SDS011;1093;51.424;11.764;2023-05-10T00:28:26;8.70;;;6.93;;
2173;SDS011;1093;51.424;11.764;2023-05-10T00:30:53;9.00;;;7.80;;
2173;SDS011;1093;51.424;11.764;2023-05-10T00:33:23;9.53;;;8.63;;
2173;SDS011;1093;51.424;11.764;2023-05-10T00:35:49;9.93;;;7.43;;
2173;SDS011;1093;51.424;11.764;2023-05-10T00:38:16;10.90;;;8.17;;
2173;SDS011;1093;51.424;11.764;2023-05-10T00:40:43;9.77;;;8.10;;
2173;SDS011;1093;51.424;11.764;2023-05-10T00:43:10;9.00;;;8.10;;
2173;SDS011;1093;51.424;11.764;2023-05-10T00:45:36;8.47;;;7.57;;
2173;SDS011;1093;51.424;11.764;2023-05-10T00:48:06;9.97;;;8.33;;
2173;SDS011;1093;51.424;11.764;2023-05-10T00:50:34;10.57;;;7.17;;
2173;SDS011;1093;51.424;11.764;2023-05-10T00:53:01;8.57;;;7.37;;
2173;SDS011;1093;51.424;11.764;2023-05-10T00:55:29;10.40;;;8.00;;
2173;SDS011;1093;51.424;11.764;2023-05-10T00:57:56;9.20;;;7.43;;
2173;SDS011;1093;51.424;11.764;2023-05-10T01:00:23;9.30;;;7.50;;
2173;SDS011;1093;51.424;11.764;2023-05-10T01:02:53;11.80;;;7.70;;
2173;SDS011;1093;51.424;11.764;2023-05-10T01:05:20;13.47;;;8.83;;
2173;SDS011;1093;51.424;11.764;2023-05-10T01:07:48;11.37;;;8.40;;
2173;SDS011;1093;51.424;11.764;2023-05-10T01:10:15;10.90;;;8.97;;
2173;SDS011;1093;51.424;11.764;2023-05-10T01:12:43;13.83;;;9.07;;
2173;SDS011;1093;51.424;11.764;2023-05-10T01:15:12;9.50;;;8.30;;
2173;SDS011;1093;51.424;11.764;2023-05-10T01:17:42;11.17;;;9.10;;
2173;SDS011;1093;51.424;11.764;2023-05-10T01:20:11;9.30;;;7.93;;
2173;SDS011;1093;51.424;11.764;2023-05-10T01:22:53;10.43;;;8.47;;
2173;SDS011;1093;51.424;11.764;2023-05-10T01:25:48;15.00;;;8.87;;
2173;SDS011;1093;51.424;11.764;2023-05-10T01:31:49;12.13;;;8.80;;
2173;SDS011;1093;51.424;11.764;2023-05-10T01:34:51;9.93;;;8.93;;
2173;SDS011;1093;51.424;11.764;2023-05-10T01:37:26;11.20;;;8.67;;
2173;SDS011;1093;51.424;11.764;2023-05-10T01:40:00;10.70;;;7.97;;
2173;SDS011;1093;51.424;11.764;2023-05-10T01:42:32;10.93;;;8.93;;
2173;SDS011;1093;51.424;11.764;2023-05-10T01:45:07;9.70;;;7.87;;
2173;SDS011;1093;51.424;11.764;2023-05-10T01:47:41;14.60;;;8.27;;
2173;SDS011;1093;51.424;11.764;2023-05-10T01:50:10;13.50;;;9.23;;
2173;SDS011;1093;51.424;11.764;2023-05-10T01:52:43;12.43;;;8.50;;
2173;SDS011;1093;51.424;11.764;2023-05-10T01:55:14;8.80;;;7.43;;
2173;SDS011;1093;51.424;11.764;2023-05-10T01:57:44;10.90;;;7.83;;
2173;SDS011;1093;51.424;11.764;2023-05-10T02:00:14;10.93;;;8.80;;
2173;SDS011;1093;51.424;11.764;2023-05-10T02:02:44;11.33;;;8.60;;
2173;SDS011;1093;51.424;11.764;2023-05-10T02:05:13;10.73;;;8.43;;
2173;SDS011;1093;51.424;11.764;2023-05-10T02:07:41;9.63;;;8.63;;
2173;SDS011;1093;51.424;11.764;2023-05-10T02:10:09;12.37;;;8.80;;
2173;SDS011;1093;51.424;11.764;2023-05-10T02:12:38;12.93;;;8.20;;
2173;SDS011;1093;51.424;11.764;2023-05-10T02:15:07;13.37;;;9.57;;
2173;SDS011;1093;51.424;11.764;2023-05-10T02:17:36;9.10;;;7.53;;
2173;SDS011;1093;51.424;11.764;2023-05-10T02:20:07;9.17;;;8.20;;
2173;SDS011;1093;51.424;11.764;2023-05-10T02:22:35;14.60;;;9.67;;
2173;SDS011;1093;51.424;11.764;2023-05-10T02:25:03;11.70;;;9.97;;
2173;SDS011;1093;51.424;11.764;2023-05-10T02:27:30;11.87;;;9.17;;
2173;SDS011;1093;51.424;11.764;2023-05-10T02:29:57;13.10;;;9.63;;
2173;SDS011;1093;51.424;11.764;2023-05-10T02:32:24;10.33;;;9.23;;
2173;SDS011;1093;51.424;11.764;2023-05-10T02:34:53;18.03;;;11.70;;
2173;SDS011;1093;51.424;11.764;2023-05-10T02:37:23;14.57;;;9.80;;
2173;SDS011;1093;51.424;11.764;2023-05-10T02:39:52;13.40;;;9.63;;
2173;SDS011;1093;51.424;11.764;2023-05-10T02:42:23;10.00;;;8.97;;
2173;SDS011;1093;51.424;11.764;2023-05-10T02:44:53;12.37;;;8.33;;
2173;SDS011;1093;51.424;11.764;2023-05-10T02:47:22;12.07;;;8.87;;
2173;SDS011;1093;51.424;11.764;2023-05-10T02:49:49;11.33;;;8.30;;
2173;SDS011;1093;51.424;11.764;2023-05-10T02:52:16;11.10;;;9.33;;
2173;SDS011;1093;51.424;11.764;2023-05-10T02:54:50;9.23;;;8.33;;
2173;SDS011;1093;51.424;11.764;2023-05-10T02:57:22;11.57;;;9.63;;
2173;SDS011;1093;51.424;11.764;2023-05-10T02:59:55;11.00;;;8.70;;
2173;SDS011;1093;51.424;11.764;2023-05-10T03:02:21;12.70;;;9.13;;
2173;SDS011;1093;51.424;11.764;2023-05-10T03:04:48;13.90;;;9.50;;
2173;SDS011;1093;51.424;11.764;2023-05-10T03:07:15;12.00;;;9.73;;
2173;SDS011;1093;51.424;11.764;2023-05-10T03:09:44;9.93;;;8.87;;
2173;SDS011;1093;51.424;11.764;2023-05-10T03:12:14;13.30;;;10.50;;
2173;SDS011;1093;51.424;11.764;2023-05-10T03:14:45;10.40;;;8.83;;
2173;SDS011;1093;51.424;11.764;2023-05-10T03:17:22;11.73;;;8.73;;
2173;SDS011;1093;51.424;11.764;2023-05-10T03:19:55;11.27;;;8.60;;
2173;SDS011;1093;51.424;11.764;2023-05-10T03:22:24;11.17;;;9.13;;
2173;SDS011;1093;51.424;11.764;2023-05-10T03:24:56;10.50;;;8.40;;
2173;SDS011;1093;51.424;11.764;2023-05-10T03:27:25;10.20;;;9.10;;
2173;SDS011;1093;51.424;11.764;2023-05-10T03:29:53;10.27;;;8.40;;
2173;SDS011;1093;51.424;11.764;2023-05-10T03:32:21;12.10;;;9.17;;
2173;SDS011;1093;51.424;11.764;2023-05-10T03:34:48;11.20;;;8.40;;
2173;SDS011;1093;51.424;11.764;2023-05-10T03:37:15;11.57;;;8.60;;
2173;SDS011;1093;51.424;11.764;2023-05-10T03:39:42;11.33;;;9.23;;
2173;SDS011;1093;51.424;11.764;2023-05-10T03:42:08;14.23;;;9.20;;
2173;SDS011;1093;51.424;11.764;2023-05-10T03:44:38;12.37;;;10.00;;
2173;SDS011;1093;51.424;11.764;2023-05-10T03:47:05;16.13;;;10.43;;
2173;SDS011;1093;51.424;11.764;2023-05-10T03:49:32;9.87;;;8.83;;
2173;SDS011;1093;51.424;11.764;2023-05-10T03:51:58;13.83;;;9.60;;
2173;SDS011;1093;51.424;11.764;2023-05-10T03:54:25;11.63;;;10.10;;
2173;SDS011;1093;51.424;11.764;2023-05-10T03:56:52;14.77;;;9.33;;
2173;SDS011;1093;51.424;11.764;2023-05-10T03:59:18;11.03;;;9.60;;
2173;SDS011;1093;51.424;11.764;2023-05-10T04:01:46;12.17;;;8.37;;
2173;SDS011;1093;51.424;11.764;2023-05-10T04:04:13;11.70;;;9.27;;
2173;SDS011;1093;51.424;11.764;2023-05-10T04:06:40;12.23;;;9.47;;
2173;SDS011;1093;51.424;11.764;2023-05-10T04:09:07;13.30;;;9.30;;
2173;SDS011;1093;51.424;11.764;2023-05-10T04:11:34;11.80;;;8.37;;
2173;SDS011;1093;51.424;11.764;2023-05-10T04:14:00;11.50;;;8.17;;
2173;SDS011;1093;51.424;11.764;2023-05-10T04:16:27;13.70;;;8.00;;
2173;SDS011;1093;51.424;11.764;2023-05-10T04:18:55;10.67;;;7.40;;
2173;SDS011;1093;51.424;11.764;2023-05-10T04:21:22;9.10;;;8.20;;
2173;SDS011;1093;51.424;11.764;2023-05-10T04:23:49;9.60;;;8.33;;
2173;SDS011;1093;51.424;11.764;2023-05-10T04:26:16;9.87;;;7.50;;
2173;SDS011;1093;51.424;11.764;2023-05-10T04:28:43;9.73;;;7.70;;
2173;SDS011;1093;51.424;11.764;2023-05-10T04:31:10;7.60;;;6.80;;
2173;SDS011;1093;51.424;11.764;2023-05-10T04:33:37;8.33;;;6.30;;
2173;SDS011;1093;51.424;11.764;2023-05-10T04:36:05;8.60;;;7.27;;
2173;SDS011;1093;51.424;11.764;2023-05-10T04:38:32;8.70;;;6.97;;
2173;SDS011;1093;51.424;11.764;2023-05-10T04:41:05;9.10;;;7.50;;
2173;SDS011;1093;51.424;11.764;2023-05-10T04:43:32;9.47;;;8.20;;
2173;SDS011;1093;51.424;11.764;2023-05-10T04:45:59;8.90;;;7.90;;
2173;SDS011;1093;51.424;11.764;2023-05-10T04:48:26;13.43;;;9.60;;
2173;SDS011;1093;51.424;11.764;2023-05-10T04:50:53;11.90;;;8.30;;
2173;SDS011;1093;51.424;11.764;2023-05-10T04:53:21;12.97;;;9.10;;
2173;SDS011;1093;51.424;11.764;2023-05-10T04:55:48;10.93;;;8.60;;
2173;SDS011;1093;51.424;11.764;2023-05-10T04:58:15;12.13;;;8.17;;
2173;SDS011;1093;51.424;11.764;2023-05-10T05:00:41;10.43;;;6.97;;
2173;SDS011;1093;51.424;11.764;2023-05-10T05:03:09;9.33;;;7.20;;
2173;SDS011;1093;51.424;11.764;2023-05-10T05:05:36;9.03;;;7.07;;
2173;SDS011;1093;51.424;11.764;2023-05-10T05:08:03;10.37;;;7.90;;
2173;SDS011;1093;51.424;11.764;2023-05-10T05:10:31;10.73;;;7.17;;
2173;SDS011;1093;51.424;11.764;2023-05-10T05:12:58;8.50;;;7.17;;
2173;SDS011;1093;51.424;11.764;2023-05-10T05:15:25;8.77;;;6.60;;
2173;SDS011;1093;51.424;11.764;2023-05-10T05:17:52;12.17;;;6.13;;
2173;SDS011;1093;51.424;11.764;2023-05-10T05:20:19;9.60;;;7.43;;
2173;SDS011;1093;51.424;11.764;2023-05-10T05:22:46;12.70;;;7.67;;
2173;SDS011;1093;51.424;11.764;2023-05-10T05:25:12;10.03;;;8.07;;
2173;SDS011;1093;51.424;11.764;2023-05-10T05:27:41;10.37;;;7.93;;
2173;SDS011;1093;51.424;11.764;2023-05-10T05:30:08;12.60;;;8.00;;
2173;SDS011;1093;51.424;11.764;2023-05-10T05:32:36;12.13;;;7.83;;
2173;SDS011;1093;51.424;11.764;2023-05-10T05:35:02;10.83;;;6.77;;
2173;SDS011;1093;51.424;11.764;2023-05-10T05:37:30;15.63;;;8.60;;
2173;SDS011;1093;51.424;11.764;2023-05-10T05:39:56;11.57;;;8.60;;
2173;SDS011;1093;51.424;11.764;2023-05-10T05:42:23;11.83;;;8.60;;
2173;SDS011;1093;51.424;11.764;2023-05-10T05:44:52;12.60;;;6.93;;
2173;SDS011;1093;51.424;11.764;2023-05-10T05:47:19;16.17;;;8.70;;
2173;SDS011;1093;51.424;11.764;2023-05-10T05:49:45;12.50;;;9.33;;
2173;SDS011;1093;51.424;11.764;2023-05-10T05:52:12;9.70;;;8.10;;
2173;SDS011;1093;51.424;11.764;2023-05-10T05:54:39;10.00;;;8.40;;
2173;SDS011;1093;51.424;11.764;2023-05-10T05:57:06;16.27;;;10.33;;
2173;SDS011;1093;51.424;11.764;2023-05-10T05:59:32;10.50;;;8.73;;
2173;SDS011;1093;51.424;11.764;2023-05-10T06:02:00;15.73;;;9.10;;
2173;SDS011;1093;51.424;11.764;2023-05-10T06:04:27;11.80;;;9.03;;
2173;SDS011;1093;51.424;11.764;2023-05-10T06:06:54;10.60;;;9.10;;
2173;SDS011;1093;51.424;11.764;2023-05-10T06:09:21;10.30;;;8.60;;
2173;SDS011;1093;51.424;11.764;2023-05-10T06:11:49;14.33;;;10.53;;
2173;SDS011;1093;51.424;11.764;2023-05-10T06:14:16;11.17;;;9.40;;
2173;SDS011;1093;51.424;11.764;2023-05-10T06:16:43;15.90;;;11.60;;
2173;SDS011;1093;51.424;11.764;2023-05-10T06:19:11;14.00;;;10.00;;
2173;SDS011;1093;51.424;11.764;2023-05-10T06:21:37;10.97;;;9.70;;
2173;SDS011;1093;51.424;11.764;2023-05-10T06:24:05;12.73;;;9.53;;
2173;SDS011;1093;51.424;11.764;2023-05-10T06:26:32;11.77;;;9.33;;
2173;SDS011;1093;51.424;11.764;2023-05-10T06:28:59;13.70;;;9.63;;
2173;SDS011;1093;51.424;11.764;2023-05-10T06:31:26;17.40;;;10.90;;
2173;SDS011;1093;51.424;11.764;2023-05-10T06:33:53;13.90;;;10.87;;
2173;SDS011;1093;51.424;11.764;2023-05-10T06:36:21;12.70;;;10.03;;
2173;SDS011;1093;51.424;11.764;2023-05-10T06:38:49;19.13;;;11.60;;
2173;SDS011;1093;51.424;11.764;2023-05-10T06:41:16;19.80;;;10.00;;
2173;SDS011;1093;51.424;11.764;2023-05-10T06:43:43;14.73;;;9.40;;
2173;SDS011;1093;51.424;11.764;2023-05-10T06:46:09;13.93;;;10.10;;
2173;SDS011;1093;51.424;11.764;2023-05-10T06:48:36;15.37;;;9.67;;
2173;SDS011;1093;51.424;11.764;2023-05-10T06:51:03;12.63;;;8.57;;
2173;SDS011;1093;51.424;11.764;2023-05-10T06:53:31;14.30;;;9.50;;
2173;SDS011;1093;51.424;11.764;2023-05-10T06:55:58;11.47;;;9.47;;
2173;SDS011;1093;51.424;11.764;2023-05-10T06:58:25;13.90;;;9.63;;
2173;SDS011;1093;51.424;11.764;2023-05-10T07:00:52;16.77;;;10.57;;
2173;SDS011;1093;51.424;11.764;2023-05-10T07:03:18;12.53;;;8.43;;
2173;SDS011;1093;51.424;11.764;2023-05-10T07:05:45;14.27;;;9.30;;
2173;SDS011;1093;51.424;11.764;2023-05-10T07:08:12;10.53;;;9.43;;
2173;SDS011;1093;51.424;11.764;2023-05-10T07:10:40;10.40;;;8.33;;
2173;SDS011;1093;51.424;11.764;2023-05-10T07:13:07;13.23;;;9.90;;
2173;SDS011;1093;51.424;11.764;2023-05-10T07:15:34;12.77;;;7.37;;
2173;SDS011;1093;51.424;11.764;2023-05-10T07:18:01;9.43;;;7.60;;
2173;SDS011;1093;51.424;11.764;2023-05-10T07:20:29;12.73;;;8.10;;
2173;SDS011;1093;51.424;11.764;2023-05-10T07:22:56;9.17;;;7.43;;
2173;SDS011;1093;51.424;11.764;2023-05-10T07:25:23;9.90;;;8.13;;
2173;SDS011;1093;51.424;11.764;2023-05-10T07:27:51;9.03;;;8.00;;
2173;SDS011;1093;51.424;11.764;2023-05-10T07:30:18;11.70;;;7.60;;
2173;SDS011;1093;51.424;11.764;2023-05-10T07:32:44;11.43;;;7.80;;
2173;SDS011;1093;51.424;11.764;2023-05-10T07:35:11;9.50;;;7.50;;
2173;SDS011;1093;51.424;11.764;2023-05-10T07:37:38;9.00;;;7.40;;
2173;SDS011;1093;51.424;11.764;2023-05-10T07:40:05;7.70;;;6.77;;
2173;SDS011;1093;51.424;11.764;2023-05-10T07:42:33;8.80;;;7.20;;
2173;SDS011;1093;51.424;11.764;2023-05-10T07:45:01;7.87;;;6.90;;
2173;SDS011;1093;51.424;11.764;2023-05-10T07:47:28;9.57;;;6.50;;
2173;SDS011;1093;51.424;11.764;2023-05-10T07:49:55;9.73;;;6.83;;
2173;SDS011;1093;51.424;11.764;2023-05-10T07:52:21;15.70;;;6.70;;
2173;SDS011;1093;51.424;11.764;2023-05-10T07:54:48;8.97;;;6.53;;
2173;SDS011;1093;51.424;11.764;2023-05-10T07:57:15;8.23;;;5.97;;
2173;SDS011;1093;51.424;11.764;2023-05-10T07:59:42;9.50;;;7.27;;
2173;SDS011;1093;51.424;11.764;2023-05-10T08:02:11;11.50;;;6.40;;
2173;SDS011;1093;51.424;11.764;2023-05-10T08:04:37;10.63;;;6.67;;
2173;SDS011;1093;51.424;11.764;2023-05-10T08:07:04;8.07;;;7.00;;
2173;SDS011;1093;51.424;11.764;2023-05-10T08:09:31;7.50;;;6.13;;
2173;SDS011;1093;51.424;11.764;2023-05-10T08:11:58;15.23;;;6.70;;
2173;SDS011;1093;51.424;11.764;2023-05-10T08:14:25;11.47;;;7.87;;
2173;SDS011;1093;51.424;11.764;2023-05-10T08:16:53;8.13;;;6.90;;
2173;SDS011;1093;51.424;11.764;2023-05-10T08:19:21;8.37;;;7.23;;
2173;SDS011;1093;51.424;11.764;2023-05-10T08:21:50;6.73;;;5.70;;
2173;SDS011;1093;51.424;11.764;2023-05-10T08:24:18;12.93;;;6.40;;
2173;SDS011;1093;51.424;11.764;2023-05-10T08:26:45;7.00;;;5.77;;
2173;SDS011;1093;51.424;11.764;2023-05-10T08:29:12;9.83;;;7.13;;
2173;SDS011;1093;51.424;11.764;2023-05-10T08:31:39;7.33;;;6.63;;
2173;SDS011;1093;51.424;11.764;2023-05-10T08:34:06;7.77;;;6.97;;
2173;SDS011;1093;51.424;11.764;2023-05-10T08:36:34;12.30;;;7.30;;
2173;SDS011;1093;51.424;11.764;2023-05-10T08:39:01;7.20;;;6.50;;
2173;SDS011;1093;51.424;11.764;2023-05-10T08:41:28;7.83;;;6.97;;
2173;SDS011;1093;51.424;11.764;2023-05-10T08:43:58;10.27;;;8.00;;
2173;SDS011;1093;51.424;11.764;2023-05-10T08:46:30;6.90;;;6.10;;
2173;SDS011;1093;51.424;11.764;2023-05-10T08:48:59;8.13;;;5.93;;
2173;SDS011;1093;51.424;11.764;2023-05-10T08:51:30;9.20;;;6.40;;
2173;SDS011;1093;51.424;11.764;2023-05-10T08:54:03;8.33;;;5.63;;
2173;SDS011;1093;51.424;11.764;2023-05-10T08:56:30;11.60;;;5.90;;
2173;SDS011;1093;51.424;11.764;2023-05-10T08:58:57;8.17;;;6.40;;
2173;SDS011;1093;51.424;11.764;2023-05-10T09:01:24;9.43;;;6.33;;
2173;SDS011;1093;51.424;11.764;2023-05-10T09:03:52;7.23;;;6.53;;
2173;SDS011;1093;51.424;11.764;2023-05-10T09:06:20;9.90;;;6.87;;
2173;SDS011;1093;51.424;11.764;2023-05-10T09:08:47;7.70;;;6.90;;
2173;SDS011;1093;51.424;11.764;2023-05-10T09:11:15;6.17;;;5.57;;
2173;SDS011;1093;51.424;11.764;2023-05-10T09:13:43;6.07;;;5.47;;
2173;SDS011;1093;51.424;11.764;2023-05-10T09:16:10;7.43;;;6.40;;
2173;SDS011;1093;51.424;11.764;2023-05-10T09:18:37;4.47;;;4.07;;
2173;SDS011;1093;51.424;11.764;2023-05-10T09:21:04;4.30;;;3.90;;
2173;SDS011;1093;51.424;11.764;2023-05-10T09:23:31;6.47;;;3.97;;
2173;SDS011;1093;51.424;11.764;2023-05-10T09:26:04;3.33;;;3.03;;
2173;SDS011;1093;51.424;11.764;2023-05-10T09:28:33;3.53;;;3.23;;
2173;SDS011;1093;51.424;11.764;2023-05-10T09:31:00;3.10;;;2.80;;
2173;SDS011;1093;51.424;11.764;2023-05-10T09:33:27;2.27;;;2.07;;
2173;SDS011;1093;51.424;11.764;2023-05-10T09:35:54;2.50;;;2.30;;
2173;SDS011;1093;51.424;11.764;2023-05-10T09:38:21;2.07;;;1.87;;
2173;SDS011;1093;51.424;11.764;2023-05-10T09:40:51;1.93;;;1.73;;
2173;SDS011;1093;51.424;11.764;2023-05-10T09:43:20;2.90;;;2.60;;
2173;SDS011;1093;51.424;11.764;2023-05-10T09:45:48;2.53;;;2.33;;
2173;SDS011;1093;51.424;11.764;2023-05-10T09:48:15;2.70;;;2.50;;
2173;SDS011;1093;51.424;11.764;2023-05-10T09:50:42;4.23;;;2.70;;
2173;SDS011;1093;51.424;11.764;2023-05-10T09:53:09;2.80;;;2.53;;
2173;SDS011;1093;51.424;11.764;2023-05-10T09:55:42;2.80;;;2.60;;
2173;SDS011;1093;51.424;11.764;2023-05-10T09:58:11;2.20;;;1.90;;
2173;SDS011;1093;51.424;11.764;2023-05-10T10:00:39;2.20;;;2.00;;
2173;SDS011;1093;51.424;11.764;2023-05-10T10:03:13;5.00;;;2.70;;
2173;SDS011;1093;51.424;11.764;2023-05-10T10:05:40;2.73;;;2.53;;
2173;SDS011;1093;51.424;11.764;2023-05-10T10:08:09;3.37;;;2.80;;
2173;SDS011;1093;51.424;11.764;2023-05-10T10:10:36;3.53;;;2.43;;
2173;SDS011;1093;51.424;11.764;2023-05-10T10:13:03;2.60;;;2.40;;
2173;SDS011;1093;51.424;11.764;2023-05-10T10:15:30;3.43;;;2.70;;
2173;SDS011;1093;51.424;11.764;2023-05-10T10:17:59;2.60;;;2.40;;
2173;SDS011;1093;51.424;11.764;2023-05-10T10:20:28;2.93;;;2.73;;
2173;SDS011;1093;51.424;11.764;2023-05-10T10:22:54;2.73;;;2.30;;
2173;SDS011;1093;51.424;11.764;2023-05-10T10:25:21;3.30;;;2.90;;
2173;SDS011;1093;51.424;11.764;2023-05-10T10:27:54;3.37;;;2.83;;
2173;SDS011;1093;51.424;11.764;2023-05-10T10:30:31;3.90;;;3.50;;
2173;SDS011;1093;51.424;11.764;2023-05-10T10:33:13;2.83;;;2.60;;
2173;SDS011;1093;51.424;11.764;2023-05-10T10:35:57;3.80;;;3.50;;
2173;SDS011;1093;51.424;11.764;2023-05-10T10:38:25;2.30;;;2.00;;
2173;SDS011;1093;51.424;11.764;2023-05-10T10:41:02;4.43;;;2.07;;
2173;SDS011;1093;51.424;11.764;2023-05-10T10:43:33;2.63;;;2.43;;
2173;SDS011;1093;51.424;11.764;2023-05-10T10:46:10;1.73;;;1.50;;
2173;SDS011;1093;51.424;11.764;2023-05-10T10:48:43;1.90;;;1.70;;
2173;SDS011;1093;51.424;11.764;2023-05-10T10:51:15;2.37;;;2.17;;
2173;SDS011;1093;51.424;11.764;2023-05-10T10:53:42;2.10;;;1.90;;
2173;SDS011;1093;51.424;11.764;2023-05-10T10:56:10;2.60;;;2.40;;
2173;SDS011;1093;51.424;11.764;2023-05-10T10:58:39;4.63;;;2.97;;
2173;SDS011;1093;51.424;11.764;2023-05-10T11:01:11;2.80;;;2.03;;
2173;SDS011;1093;51.424;11.764;2023-05-10T11:03:39;2.17;;;1.97;;
2173;SDS011;1093;51.424;11.764;2023-05-10T11:06:06;4.13;;;3.00;;
2173;SDS011;1093;51.424;11.764;2023-05-10T11:08:41;2.70;;;1.73;;
2173;SDS011;1093;51.424;11.764;2023-05-10T11:11:09;3.20;;;2.00;;
2173;SDS011;1093;51.424;11.764;2023-05-10T11:13:39;2.43;;;1.50;;
2173;SDS011;1093;51.424;11.764;2023-05-10T11:16:11;2.43;;;1.90;;
2173;SDS011;1093;51.424;11.764;2023-05-10T11:18:39;2.03;;;1.90;;
2173;SDS011;1093;51.424;11.764;2023-05-10T11:21:08;2.07;;;1.87;;
2173;SDS011;1093;51.424;11.764;2023-05-10T11:23:51;2.93;;;1.43;;
2173;SDS011;1093;51.424;11.764;2023-05-10T11:26:21;3.77;;;2.13;;
2173;SDS011;1093;51.424;11.764;2023-05-10T11:28:51;2.07;;;1.83;;
2173;SDS011;1093;51.424;11.764;2023-05-10T11:31:19;2.13;;;1.97;;
2173;SDS011;1093;51.424;11.764;2023-05-10T11:33:47;3.07;;;2.40;;
2173;SDS011;1093;51.424;11.764;2023-05-10T11:36:16;2.47;;;2.27;;
2173;SDS011;1093;51.424;11.764;2023-05-10T11:38:44;2.63;;;2.40;;
2173;SDS011;1093;51.424;11.764;2023-05-10T11:41:12;2.63;;;2.43;;
2173;SDS011;1093;51.424;11.764;2023-05-10T11:43:39;2.20;;;2.00;;
2173;SDS011;1093;51.424;11.764;2023-05-10T11:46:07;1.90;;;1.80;;
2173;SDS011;1093;51.424;11.764;2023-05-10T11:48:36;1.90;;;1.70;;
2173;SDS011;1093;51.424;11.764;2023-05-10T11:51:05;2.30;;;2.10;;
2173;SDS011;1093;51.424;11.764;2023-05-10T11:53:33;2.33;;;2.13;;
2173;SDS011;1093;51.424;11.764;2023-05-10T11:56:03;3.30;;;3.00;;
2173;SDS011;1093;51.424;11.764;2023-05-10T11:58:32;3.80;;;3.50;;
2173;SDS011;1093;51.424;11.764;2023-05-10T12:00:59;4.70;;;3.20;;
2173;SDS011;1093;51.424;11.764;2023-05-10T12:03:27;4.00;;;3.20;;
2173;SDS011;1093;51.424;11.764;2023-05-10T12:05:54;2.93;;;2.70;;
2173;SDS011;1093;51.424;11.764;2023-05-10T12:08:22;2.80;;;2.50;;
2173;SDS011;1093;51.424;11.764;2023-05-10T12:10:49;3.43;;;3.07;;
2173;SDS011;1093;51.424;11.764;2023-05-10T12:13:16;3.00;;;2.67;;
2173;SDS011;1093;51.424;11.764;2023-05-10T12:15:46;3.60;;;2.60;;
2173;SDS011;1093;51.424;11.764;2023-05-10T12:18:13;1.70;;;1.60;;
2173;SDS011;1093;51.424;11.764;2023-05-10T12:20:40;2.40;;;2.20;;
2173;SDS011;1093;51.424;11.764;2023-05-10T12:23:08;3.50;;;2.67;;
2173;SDS011;1093;51.424;11.764;2023-05-10T12:25:36;2.60;;;2.40;;
2173;SDS011;1093;51.424;11.764;2023-05-10T12:28:04;2.67;;;1.97;;
2173;SDS011;1093;51.424;11.764;2023-05-10T12:30:34;2.63;;;2.43;;
2173;SDS011;1093;51.424;11.764;2023-05-10T12:33:08;2.30;;;2.10;;
2173;SDS011;1093;51.424;11.764;2023-05-10T12:35:45;2.47;;;2.27;;
2173;SDS011;1093;51.424;11.764;2023-05-10T12:38:26;3.30;;;2.37;;
2173;SDS011;1093;51.424;11.764;2023-05-10T12:40:54;2.90;;;2.60;;
2173;SDS011;1093;51.424;11.764;2023-05-10T12:43:21;2.30;;;2.13;;
2173;SDS011;1093;51.424;11.764;2023-05-10T12:45:48;2.97;;;2.67;;
2173;SDS011;1093;51.424;11.764;2023-05-10T12:48:16;2.33;;;2.13;;
2173;SDS011;1093;51.424;11.764;2023-05-10T12:50:43;1.83;;;1.73;;
2173;SDS011;1093;51.424;11.764;2023-05-10T12:53:10;3.10;;;2.07;;
2173;SDS011;1093;51.424;11.764;2023-05-10T12:55:38;1.70;;;1.60;;
2173;SDS011;1093;51.424;11.764;2023-05-10T12:58:07;1.60;;;1.50;;
2173;SDS011;1093;51.424;11.764;2023-05-10T13:00:34;2.13;;;1.60;;
2173;SDS011;1093;51.424;11.764;2023-05-10T13:03:03;1.33;;;1.23;;
2173;SDS011;1093;51.424;11.764;2023-05-10T13:05:31;1.77;;;1.63;;
2173;SDS011;1093;51.424;11.764;2023-05-10T13:07:58;1.63;;;1.50;;
2173;SDS011;1093;51.424;11.764;2023-05-10T13:10:25;1.47;;;1.17;;
2173;SDS011;1093;51.424;11.764;2023-05-10T13:12:52;2.30;;;1.37;;
2173;SDS011;1093;51.424;11.764;2023-05-10T13:15:18;1.30;;;1.20;;
2173;SDS011;1093;51.424;11.764;2023-05-10T13:17:45;1.00;;;0.90;;
2173;SDS011;1093;51.424;11.764;2023-05-10T13:20:12;0.83;;;0.83;;
2173;SDS011;1093;51.424;11.764;2023-05-10T13:22:40;2.70;;;1.00;;
2173;SDS011;1093;51.424;11.764;2023-05-10T13:25:07;1.13;;;1.03;;
2173;SDS011;1093;51.424;11.764;2023-05-10T13:27:35;1.83;;;1.23;;
2173;SDS011;1093;51.424;11.764;2023-05-10T13:30:01;1.33;;;1.23;;
2173;SDS011;1093;51.424;11.764;2023-05-10T13:32:28;1.40;;;1.30;;
2173;SDS011;1093;51.424;11.764;2023-05-10T13:34:55;1.17;;;0.97;;
2173;SDS011;1093;51.424;11.764;2023-05-10T13:37:22;1.43;;;1.30;;
2173;SDS011;1093;51.424;11.764;2023-05-10T13:39:50;1.93;;;1.77;;
2173;SDS011;1093;51.424;11.764;2023-05-10T13:42:17;1.63;;;1.53;;
2173;SDS011;1093;51.424;11.764;2023-05-10T13:44:44;2.20;;;1.60;;
2173;SDS011;1093;51.424;11.764;2023-05-10T13:47:11;2.50;;;1.70;;
2173;SDS011;1093;51.424;11.764;2023-05-10T13:49:38;1.80;;;1.70;;
2173;SDS011;1093;51.424;11.764;2023-05-10T13:52:04;1.43;;;1.33;;
2173;SDS011;1093;51.424;11.764;2023-05-10T13:54:31;2.90;;;1.70;;
2173;SDS011;1093;51.424;11.764;2023-05-10T13:57:00;1.90;;;1.80;;
2173;SDS011;1093;51.424;11.764;2023-05-10T13:59:26;2.60;;;2.40;;
2173;SDS011;1093;51.424;11.764;2023-05-10T14:01:53;1.70;;;1.60;;
2173;SDS011;1093;51.424;11.764;2023-05-10T14:04:20;1.40;;;1.30;;
2173;SDS011;1093;51.424;11.764;2023-05-10T14:06:46;2.00;;;1.33;;
2173;SDS011;1093;51.424;11.764;2023-05-10T14:09:13;1.43;;;1.33;;
2173;SDS011;1093;51.424;11.764;2023-05-10T14:11:40;2.20;;;1.00;;
2173;SDS011;1093;51.424;11.764;2023-05-10T14:14:09;1.27;;;1.07;;
2173;SDS011;1093;51.424;11.764;2023-05-10T14:16:36;1.43;;;1.33;;
2173;SDS011;1093;51.424;11.764;2023-05-10T14:19:03;1.33;;;1.10;;
2173;SDS011;1093;51.424;11.764;2023-05-10T14:21:29;1.23;;;1.13;;
2173;SDS011;1093;51.424;11.764;2023-05-10T14:23:56;1.10;;;1.00;;
2173;SDS011;1093;51.424;11.764;2023-05-10T14:26:23;1.17;;;1.07;;
2173;SDS011;1093;51.424;11.764;2023-05-10T14:28:50;1.20;;;1.10;;
2173;SDS011;1093;51.424;11.764;2023-05-10T14:31:18;1.60;;;1.20;;
2173;SDS011;1093;51.424;11.764;2023-05-10T14:33:45;0.90;;;0.73;;
2173;SDS011;1093;51.424;11.764;2023-05-10T14:36:12;1.43;;;1.30;;
2173;SDS011;1093;51.424;11.764;2023-05-10T14:38:39;1.70;;;1.20;;
2173;SDS011;1093;51.424;11.764;2023-05-10T14:41:06;1.53;;;1.43;;
2173;SDS011;1093;51.424;11.764;2023-05-10T14:43:33;1.20;;;1.10;;
2173;SDS011;1093;51.424;11.764;2023-05-10T14:46:00;1.30;;;1.07;;
2173;SDS011;1093;51.424;11.764;2023-05-10T14:48:28;2.17;;;1.40;;
2173;SDS011;1093;51.424;11.764;2023-05-10T14:50:55;1.50;;;1.40;;
2173;SDS011;1093;51.424;11.764;2023-05-10T14:53:22;1.10;;;1.00;;
2173;SDS011;1093;51.424;11.764;2023-05-10T14:55:48;2.97;;;1.00;;
2173;SDS011;1093;51.424;11.764;2023-05-10T14:58:15;1.27;;;0.93;;
2173;SDS011;1093;51.424;11.764;2023-05-10T15:00:42;1.60;;;1.50;;
2173;SDS011;1093;51.424;11.764;2023-05-10T15:03:09;1.50;;;0.97;;
2173;SDS011;1093;51.424;11.764;2023-05-10T15:05:37;1.53;;;1.20;;